sensor_id;sensor_type;location;lat;lon;timestamp;P1;durP1;ratioP1;P2;durP2;ratioP2
3801;SDS011;1916;51.798;12.246;2022-12-07T00:01:32;25.00;;;13.27;;
3801;SDS011;1916;51.798;12.246;2022-12-07T00:03:35;22.37;;;12.80;;
3801;SDS011;1916;51.798;12.246;2022-12-07T00:05:38;26.37;;;13.47;;
3801;SDS011;1916;51.798;12.246;2022-12-07T00:07:40;29.60;;;13.33;;
3801;SDS011;1916;51.798;12.246;2022-12-07T00:09:42;26.40;;;12.47;;
3801;SDS011;1916;51.798;12.246;2022-12-07T00:11:44;25.27;;;13.70;;
3801;SDS011;1916;51.798;12.246;2022-12-07T00:13:51;30.50;;;14.30;;
3801;SDS011;1916;51.798;12.246;2022-12-07T00:15:54;30.00;;;14.40;;
3801;SDS011;1916;51.798;12.246;2022-12-07T00:17:56;24.50;;;13.40;;
3801;SDS011;1916;51.798;12.246;2022-12-07T00:19:58;32.13;;;15.73;;
3801;SDS011;1916;51.798;12.246;2022-12-07T00:22:00;29.60;;;14.80;;
3801;SDS011;1916;51.798;12.246;2022-12-07T00:24:03;28.57;;;13.40;;
3801;SDS011;1916;51.798;12.246;2022-12-07T00:26:07;27.60;;;14.67;;
3801;SDS011;1916;51.798;12.246;2022-12-07T00:28:13;36.67;;;15.40;;
3801;SDS011;1916;51.798;12.246;2022-12-07T00:30:15;38.33;;;15.73;;
3801;SDS011;1916;51.798;12.246;2022-12-07T00:32:17;32.80;;;16.33;;
3801;SDS011;1916;51.798;12.246;2022-12-07T00:34:20;44.60;;;18.23;;
3801;SDS011;1916;51.798;12.246;2022-12-07T00:36:23;43.17;;;19.07;;
3801;SDS011;1916;51.798;12.246;2022-12-07T00:38:29;42.33;;;18.60;;
3801;SDS011;1916;51.798;12.246;2022-12-07T00:40:32;42.53;;;19.10;;
3801;SDS011;1916;51.798;12.246;2022-12-07T00:42:34;39.93;;;18.80;;
3801;SDS011;1916;51.798;12.246;2022-12-07T00:44:36;43.63;;;18.93;;
3801;SDS011;1916;51.798;12.246;2022-12-07T00:46:38;38.30;;;17.63;;
3801;SDS011;1916;51.798;12.246;2022-12-07T00:48:40;42.50;;;19.60;;
3801;SDS011;1916;51.798;12.246;2022-12-07T00:50:43;45.80;;;19.57;;
3801;SDS011;1916;51.798;12.246;2022-12-07T00:52:45;35.57;;;18.03;;
3801;SDS011;1916;51.798;12.246;2022-12-07T00:54:47;32.87;;;16.07;;
3801;SDS011;1916;51.798;12.246;2022-12-07T00:56:49;36.47;;;17.37;;
3801;SDS011;1916;51.798;12.246;2022-12-07T00:58:54;34.20;;;17.37;;
3801;SDS011;1916;51.798;12.246;2022-12-07T01:01:06;35.67;;;17.03;;
3801;SDS011;1916;51.798;12.246;2022-12-07T01:03:10;35.83;;;16.37;;
3801;SDS011;1916;51.798;12.246;2022-12-07T01:05:14;36.67;;;16.90;;
3801;SDS011;1916;51.798;12.246;2022-12-07T01:07:16;33.67;;;16.30;;
3801;SDS011;1916;51.798;12.246;2022-12-07T01:09:18;38.50;;;18.87;;
3801;SDS011;1916;51.798;12.246;2022-12-07T01:11:21;39.00;;;17.20;;
3801;SDS011;1916;51.798;12.246;2022-12-07T01:13:24;32.50;;;16.83;;
3801;SDS011;1916;51.798;12.246;2022-12-07T01:15:27;31.30;;;16.63;;
3801;SDS011;1916;51.798;12.246;2022-12-07T01:17:29;34.60;;;17.70;;
3801;SDS011;1916;51.798;12.246;2022-12-07T01:19:31;32.03;;;16.23;;
3801;SDS011;1916;51.798;12.246;2022-12-07T01:21:33;35.27;;;18.20;;
3801;SDS011;1916;51.798;12.246;2022-12-07T01:23:37;35.57;;;18.10;;
3801;SDS011;1916;51.798;12.246;2022-12-07T01:25:39;37.50;;;18.67;;
3801;SDS011;1916;51.798;12.246;2022-12-07T01:27:41;35.97;;;16.93;;
3801;SDS011;1916;51.798;12.246;2022-12-07T01:29:43;42.83;;;17.80;;
3801;SDS011;1916;51.798;12.246;2022-12-07T01:31:47;39.50;;;17.80;;
3801;SDS011;1916;51.798;12.246;2022-12-07T01:33:51;38.17;;;18.33;;
3801;SDS011;1916;51.798;12.246;2022-12-07T01:36:00;38.70;;;18.07;;
3801;SDS011;1916;51.798;12.246;2022-12-07T01:38:15;36.47;;;19.60;;
3801;SDS011;1916;51.798;12.246;2022-12-07T01:40:17;35.07;;;18.57;;
3801;SDS011;1916;51.798;12.246;2022-12-07T01:42:20;35.63;;;17.87;;
3801;SDS011;1916;51.798;12.246;2022-12-07T01:44:23;39.03;;;18.10;;
3801;SDS011;1916;51.798;12.246;2022-12-07T01:46:26;36.77;;;16.93;;
3801;SDS011;1916;51.798;12.246;2022-12-07T01:50:34;43.73;;;18.47;;
3801;SDS011;1916;51.798;12.246;2022-12-07T01:52:37;42.30;;;20.10;;
3801;SDS011;1916;51.798;12.246;2022-12-07T01:54:41;35.83;;;17.67;;
3801;SDS011;1916;51.798;12.246;2022-12-07T01:56:47;37.07;;;17.87;;
3801;SDS011;1916;51.798;12.246;2022-12-07T01:58:52;34.87;;;18.40;;
3801;SDS011;1916;51.798;12.246;2022-12-07T02:00:54;36.90;;;17.70;;
3801;SDS011;1916;51.798;12.246;2022-12-07T02:05:14;37.50;;;17.10;;
3801;SDS011;1916;51.798;12.246;2022-12-07T02:07:16;34.30;;;16.23;;
3801;SDS011;1916;51.798;12.246;2022-12-07T02:09:18;35.23;;;16.23;;
3801;SDS011;1916;51.798;12.246;2022-12-07T02:11:20;30.93;;;14.90;;
3801;SDS011;1916;51.798;12.246;2022-12-07T02:13:23;37.63;;;15.60;;
3801;SDS011;1916;51.798;12.246;2022-12-07T02:18:09;33.47;;;15.17;;
3801;SDS011;1916;51.798;12.246;2022-12-07T02:20:23;30.90;;;15.90;;
3801;SDS011;1916;51.798;12.246;2022-12-07T02:27:06;27.47;;;13.23;;
3801;SDS011;1916;51.798;12.246;2022-12-07T02:29:22;20.33;;;12.67;;
3801;SDS011;1916;51.798;12.246;2022-12-07T02:31:26;21.67;;;13.03;;
3801;SDS011;1916;51.798;12.246;2022-12-07T02:33:36;29.37;;;12.67;;
3801;SDS011;1916;51.798;12.246;2022-12-07T02:35:45;25.70;;;13.20;;
3801;SDS011;1916;51.798;12.246;2022-12-07T02:39:59;21.10;;;11.87;;
3801;SDS011;1916;51.798;12.246;2022-12-07T02:42:09;35.17;;;12.97;;
3801;SDS011;1916;51.798;12.246;2022-12-07T02:44:19;24.53;;;12.87;;
3801;SDS011;1916;51.798;12.246;2022-12-07T02:46:24;24.37;;;12.77;;
3801;SDS011;1916;51.798;12.246;2022-12-07T02:48:29;25.63;;;12.50;;
3801;SDS011;1916;51.798;12.246;2022-12-07T02:50:32;32.47;;;13.97;;
3801;SDS011;1916;51.798;12.246;2022-12-07T02:52:34;24.17;;;12.63;;
3801;SDS011;1916;51.798;12.246;2022-12-07T02:54:36;28.83;;;14.33;;
3801;SDS011;1916;51.798;12.246;2022-12-07T03:03:37;27.67;;;14.80;;
3801;SDS011;1916;51.798;12.246;2022-12-07T03:12:32;29.30;;;15.80;;
3801;SDS011;1916;51.798;12.246;2022-12-07T03:14:55;35.93;;;15.27;;
3801;SDS011;1916;51.798;12.246;2022-12-07T03:17:08;31.70;;;15.90;;
3801;SDS011;1916;51.798;12.246;2022-12-07T03:19:18;30.67;;;15.10;;
3801;SDS011;1916;51.798;12.246;2022-12-07T03:21:23;36.73;;;16.73;;
3801;SDS011;1916;51.798;12.246;2022-12-07T03:23:31;27.87;;;15.60;;
3801;SDS011;1916;51.798;12.246;2022-12-07T03:25:38;32.17;;;17.90;;
3801;SDS011;1916;51.798;12.246;2022-12-07T03:29:59;35.30;;;17.80;;
3801;SDS011;1916;51.798;12.246;2022-12-07T03:32:06;41.10;;;20.33;;
3801;SDS011;1916;51.798;12.246;2022-12-07T03:34:46;40.47;;;19.00;;
3801;SDS011;1916;51.798;12.246;2022-12-07T03:37:18;35.67;;;17.87;;
3801;SDS011;1916;51.798;12.246;2022-12-07T03:39:39;32.40;;;16.23;;
3801;SDS011;1916;51.798;12.246;2022-12-07T03:41:47;38.60;;;18.50;;
3801;SDS011;1916;51.798;12.246;2022-12-07T03:43:49;45.30;;;18.50;;
3801;SDS011;1916;51.798;12.246;2022-12-07T03:50:31;38.60;;;20.30;;
3801;SDS011;1916;51.798;12.246;2022-12-07T03:52:41;44.80;;;19.23;;
3801;SDS011;1916;51.798;12.246;2022-12-07T03:56:57;38.17;;;18.80;;
3801;SDS011;1916;51.798;12.246;2022-12-07T03:59:00;47.07;;;19.80;;
3801;SDS011;1916;51.798;12.246;2022-12-07T04:01:02;34.90;;;16.83;;
3801;SDS011;1916;51.798;12.246;2022-12-07T04:03:04;46.27;;;18.50;;
3801;SDS011;1916;51.798;12.246;2022-12-07T04:05:06;51.43;;;21.73;;
3801;SDS011;1916;51.798;12.246;2022-12-07T04:07:09;47.20;;;20.17;;
3801;SDS011;1916;51.798;12.246;2022-12-07T04:09:12;43.03;;;19.40;;
3801;SDS011;1916;51.798;12.246;2022-12-07T04:11:16;44.23;;;18.70;;
3801;SDS011;1916;51.798;12.246;2022-12-07T04:13:18;48.27;;;21.00;;
3801;SDS011;1916;51.798;12.246;2022-12-07T04:15:20;49.43;;;18.87;;
3801;SDS011;1916;51.798;12.246;2022-12-07T04:17:22;44.03;;;20.17;;
3801;SDS011;1916;51.798;12.246;2022-12-07T04:19:25;47.70;;;20.10;;
3801;SDS011;1916;51.798;12.246;2022-12-07T04:21:28;33.77;;;15.10;;
3801;SDS011;1916;51.798;12.246;2022-12-07T04:23:30;44.60;;;20.20;;
3801;SDS011;1916;51.798;12.246;2022-12-07T04:25:32;39.33;;;18.63;;
3801;SDS011;1916;51.798;12.246;2022-12-07T04:27:34;50.83;;;20.47;;
3801;SDS011;1916;51.798;12.246;2022-12-07T04:29:36;49.43;;;19.20;;
3801;SDS011;1916;51.798;12.246;2022-12-07T04:31:38;55.20;;;20.83;;
3801;SDS011;1916;51.798;12.246;2022-12-07T04:33:41;52.63;;;23.27;;
3801;SDS011;1916;51.798;12.246;2022-12-07T04:35:43;49.77;;;21.47;;
3801;SDS011;1916;51.798;12.246;2022-12-07T04:37:45;51.97;;;21.33;;
3801;SDS011;1916;51.798;12.246;2022-12-07T04:39:47;42.77;;;19.47;;
3801;SDS011;1916;51.798;12.246;2022-12-07T04:41:49;50.27;;;19.10;;
3801;SDS011;1916;51.798;12.246;2022-12-07T04:43:59;51.63;;;21.40;;
3801;SDS011;1916;51.798;12.246;2022-12-07T04:46:02;42.53;;;19.43;;
3801;SDS011;1916;51.798;12.246;2022-12-07T04:48:05;42.90;;;19.70;;
3801;SDS011;1916;51.798;12.246;2022-12-07T04:50:09;51.33;;;22.30;;
3801;SDS011;1916;51.798;12.246;2022-12-07T04:52:11;50.33;;;21.90;;
3801;SDS011;1916;51.798;12.246;2022-12-07T04:54:14;42.13;;;19.37;;
3801;SDS011;1916;51.798;12.246;2022-12-07T04:56:16;46.47;;;21.37;;
3801;SDS011;1916;51.798;12.246;2022-12-07T04:58:19;43.83;;;18.50;;
3801;SDS011;1916;51.798;12.246;2022-12-07T05:00:21;47.10;;;21.20;;
3801;SDS011;1916;51.798;12.246;2022-12-07T05:02:23;45.13;;;20.30;;
3801;SDS011;1916;51.798;12.246;2022-12-07T05:04:25;52.33;;;20.50;;
3801;SDS011;1916;51.798;12.246;2022-12-07T05:06:27;45.83;;;21.20;;
3801;SDS011;1916;51.798;12.246;2022-12-07T05:08:29;42.63;;;18.50;;
3801;SDS011;1916;51.798;12.246;2022-12-07T05:10:31;42.50;;;19.20;;
3801;SDS011;1916;51.798;12.246;2022-12-07T05:12:33;43.47;;;19.40;;
3801;SDS011;1916;51.798;12.246;2022-12-07T05:14:35;44.13;;;19.10;;
3801;SDS011;1916;51.798;12.246;2022-12-07T05:16:38;43.47;;;19.33;;
3801;SDS011;1916;51.798;12.246;2022-12-07T05:18:40;50.60;;;21.27;;
3801;SDS011;1916;51.798;12.246;2022-12-07T05:20:42;40.27;;;19.33;;
3801;SDS011;1916;51.798;12.246;2022-12-07T05:22:44;47.80;;;20.63;;
3801;SDS011;1916;51.798;12.246;2022-12-07T05:24:46;45.57;;;19.90;;
3801;SDS011;1916;51.798;12.246;2022-12-07T05:26:48;48.97;;;20.60;;
3801;SDS011;1916;51.798;12.246;2022-12-07T05:28:51;43.07;;;20.10;;
3801;SDS011;1916;51.798;12.246;2022-12-07T05:30:57;43.07;;;19.67;;
3801;SDS011;1916;51.798;12.246;2022-12-07T05:33:00;49.47;;;19.90;;
3801;SDS011;1916;51.798;12.246;2022-12-07T05:35:02;50.53;;;21.10;;
3801;SDS011;1916;51.798;12.246;2022-12-07T05:37:05;42.57;;;18.40;;
3801;SDS011;1916;51.798;12.246;2022-12-07T05:39:07;34.90;;;16.97;;
3801;SDS011;1916;51.798;12.246;2022-12-07T05:41:09;36.63;;;17.17;;
3801;SDS011;1916;51.798;12.246;2022-12-07T05:43:34;42.20;;;18.57;;
3801;SDS011;1916;51.798;12.246;2022-12-07T05:45:36;40.60;;;17.80;;
3801;SDS011;1916;51.798;12.246;2022-12-07T05:47:38;42.10;;;19.00;;
3801;SDS011;1916;51.798;12.246;2022-12-07T05:49:40;39.63;;;19.00;;
3801;SDS011;1916;51.798;12.246;2022-12-07T05:51:42;40.57;;;17.57;;
3801;SDS011;1916;51.798;12.246;2022-12-07T05:53:44;37.37;;;18.10;;
3801;SDS011;1916;51.798;12.246;2022-12-07T05:55:46;35.27;;;17.00;;
3801;SDS011;1916;51.798;12.246;2022-12-07T05:57:48;40.10;;;19.33;;
3801;SDS011;1916;51.798;12.246;2022-12-07T06:00:09;39.53;;;16.43;;
3801;SDS011;1916;51.798;12.246;2022-12-07T06:02:14;40.07;;;16.43;;
3801;SDS011;1916;51.798;12.246;2022-12-07T06:04:17;35.77;;;17.43;;
3801;SDS011;1916;51.798;12.246;2022-12-07T06:06:19;39.23;;;18.10;;
3801;SDS011;1916;51.798;12.246;2022-12-07T06:08:21;35.37;;;18.40;;
3801;SDS011;1916;51.798;12.246;2022-12-07T06:10:23;42.43;;;17.50;;
3801;SDS011;1916;51.798;12.246;2022-12-07T06:12:25;31.30;;;14.93;;
3801;SDS011;1916;51.798;12.246;2022-12-07T06:14:37;33.20;;;16.30;;
3801;SDS011;1916;51.798;12.246;2022-12-07T06:16:39;30.07;;;15.83;;
3801;SDS011;1916;51.798;12.246;2022-12-07T06:18:41;33.57;;;16.90;;
3801;SDS011;1916;51.798;12.246;2022-12-07T06:20:43;27.73;;;13.83;;
3801;SDS011;1916;51.798;12.246;2022-12-07T06:22:45;32.83;;;16.03;;
3801;SDS011;1916;51.798;12.246;2022-12-07T06:24:47;34.67;;;16.37;;
3801;SDS011;1916;51.798;12.246;2022-12-07T06:26:49;30.30;;;14.70;;
3801;SDS011;1916;51.798;12.246;2022-12-07T06:28:51;25.33;;;14.73;;
3801;SDS011;1916;51.798;12.246;2022-12-07T06:30:57;28.30;;;13.47;;
3801;SDS011;1916;51.798;12.246;2022-12-07T06:33:00;24.50;;;13.80;;
3801;SDS011;1916;51.798;12.246;2022-12-07T06:35:02;33.03;;;14.43;;
3801;SDS011;1916;51.798;12.246;2022-12-07T06:37:05;27.00;;;13.93;;
3801;SDS011;1916;51.798;12.246;2022-12-07T06:39:07;31.60;;;14.20;;
3801;SDS011;1916;51.798;12.246;2022-12-07T06:41:10;24.47;;;12.87;;
3801;SDS011;1916;51.798;12.246;2022-12-07T06:43:12;32.90;;;12.80;;
3801;SDS011;1916;51.798;12.246;2022-12-07T06:45:14;30.33;;;17.70;;
3801;SDS011;1916;51.798;12.246;2022-12-07T06:47:16;27.00;;;15.77;;
3801;SDS011;1916;51.798;12.246;2022-12-07T06:49:38;22.80;;;12.40;;
3801;SDS011;1916;51.798;12.246;2022-12-07T06:51:41;25.53;;;13.40;;
3801;SDS011;1916;51.798;12.246;2022-12-07T06:53:43;23.50;;;12.80;;
3801;SDS011;1916;51.798;12.246;2022-12-07T06:55:45;23.73;;;11.13;;
3801;SDS011;1916;51.798;12.246;2022-12-07T06:57:47;18.40;;;11.47;;
3801;SDS011;1916;51.798;12.246;2022-12-07T06:59:49;23.43;;;12.40;;
3801;SDS011;1916;51.798;12.246;2022-12-07T07:01:51;25.10;;;12.67;;
3801;SDS011;1916;51.798;12.246;2022-12-07T07:03:53;23.00;;;11.30;;
3801;SDS011;1916;51.798;12.246;2022-12-07T07:05:55;18.57;;;11.70;;
3801;SDS011;1916;51.798;12.246;2022-12-07T07:07:57;21.00;;;11.30;;
3801;SDS011;1916;51.798;12.246;2022-12-07T07:10:19;19.80;;;11.63;;
3801;SDS011;1916;51.798;12.246;2022-12-07T07:12:22;20.23;;;12.27;;
3801;SDS011;1916;51.798;12.246;2022-12-07T07:14:24;19.93;;;10.87;;
3801;SDS011;1916;51.798;12.246;2022-12-07T07:16:26;29.40;;;13.30;;
3801;SDS011;1916;51.798;12.246;2022-12-07T07:18:28;24.53;;;12.23;;
3801;SDS011;1916;51.798;12.246;2022-12-07T07:20:30;17.63;;;10.80;;
3801;SDS011;1916;51.798;12.246;2022-12-07T07:22:32;25.00;;;12.93;;
3801;SDS011;1916;51.798;12.246;2022-12-07T07:24:34;20.83;;;11.00;;
3801;SDS011;1916;51.798;12.246;2022-12-07T07:26:36;20.50;;;12.07;;
3801;SDS011;1916;51.798;12.246;2022-12-07T07:28:39;20.33;;;11.33;;
3801;SDS011;1916;51.798;12.246;2022-12-07T07:30:41;19.10;;;12.00;;
3801;SDS011;1916;51.798;12.246;2022-12-07T07:32:43;27.67;;;11.60;;
3801;SDS011;1916;51.798;12.246;2022-12-07T07:34:45;19.63;;;12.20;;
3801;SDS011;1916;51.798;12.246;2022-12-07T07:36:47;19.67;;;11.37;;
3801;SDS011;1916;51.798;12.246;2022-12-07T07:38:49;23.83;;;11.93;;
3801;SDS011;1916;51.798;12.246;2022-12-07T07:40:51;22.43;;;12.60;;
3801;SDS011;1916;51.798;12.246;2022-12-07T07:42:53;18.30;;;12.23;;
3801;SDS011;1916;51.798;12.246;2022-12-07T07:44:55;24.43;;;13.57;;
3801;SDS011;1916;51.798;12.246;2022-12-07T07:46:57;27.17;;;12.80;;
3801;SDS011;1916;51.798;12.246;2022-12-07T07:48:59;28.13;;;13.00;;
3801;SDS011;1916;51.798;12.246;2022-12-07T07:51:04;17.73;;;11.67;;
3801;SDS011;1916;51.798;12.246;2022-12-07T07:53:08;28.03;;;12.23;;
3801;SDS011;1916;51.798;12.246;2022-12-07T07:55:11;21.13;;;12.10;;
3801;SDS011;1916;51.798;12.246;2022-12-07T07:57:14;21.20;;;12.23;;
3801;SDS011;1916;51.798;12.246;2022-12-07T07:59:18;28.87;;;11.27;;
3801;SDS011;1916;51.798;12.246;2022-12-07T08:01:20;19.80;;;11.67;;
3801;SDS011;1916;51.798;12.246;2022-12-07T08:03:22;19.10;;;12.37;;
3801;SDS011;1916;51.798;12.246;2022-12-07T08:05:24;27.40;;;12.70;;
3801;SDS011;1916;51.798;12.246;2022-12-07T08:07:26;18.03;;;11.90;;
3801;SDS011;1916;51.798;12.246;2022-12-07T08:09:29;20.03;;;11.63;;
3801;SDS011;1916;51.798;12.246;2022-12-07T08:11:31;23.97;;;12.87;;
3801;SDS011;1916;51.798;12.246;2022-12-07T08:13:33;22.17;;;10.60;;
3801;SDS011;1916;51.798;12.246;2022-12-07T08:15:36;20.33;;;11.90;;
3801;SDS011;1916;51.798;12.246;2022-12-07T08:17:38;21.90;;;12.13;;
3801;SDS011;1916;51.798;12.246;2022-12-07T08:19:40;25.10;;;13.90;;
3801;SDS011;1916;51.798;12.246;2022-12-07T08:21:42;31.50;;;13.13;;
3801;SDS011;1916;51.798;12.246;2022-12-07T08:23:44;23.67;;;11.53;;
3801;SDS011;1916;51.798;12.246;2022-12-07T08:25:46;23.17;;;10.93;;
3801;SDS011;1916;51.798;12.246;2022-12-07T08:27:48;19.50;;;10.73;;
3801;SDS011;1916;51.798;12.246;2022-12-07T08:29:51;23.30;;;13.40;;
3801;SDS011;1916;51.798;12.246;2022-12-07T08:31:53;20.00;;;12.67;;
3801;SDS011;1916;51.798;12.246;2022-12-07T08:33:55;26.93;;;11.90;;
3801;SDS011;1916;51.798;12.246;2022-12-07T08:36:07;24.40;;;12.30;;
3801;SDS011;1916;51.798;12.246;2022-12-07T08:38:11;22.47;;;12.30;;
3801;SDS011;1916;51.798;12.246;2022-12-07T08:40:13;19.60;;;11.77;;
3801;SDS011;1916;51.798;12.246;2022-12-07T08:42:20;17.63;;;11.53;;
3801;SDS011;1916;51.798;12.246;2022-12-07T08:44:24;16.03;;;11.10;;
3801;SDS011;1916;51.798;12.246;2022-12-07T08:46:28;19.93;;;11.77;;
3801;SDS011;1916;51.798;12.246;2022-12-07T08:48:41;23.40;;;10.60;;
3801;SDS011;1916;51.798;12.246;2022-12-07T08:50:46;19.60;;;11.03;;
3801;SDS011;1916;51.798;12.246;2022-12-07T08:52:51;18.23;;;11.37;;
3801;SDS011;1916;51.798;12.246;2022-12-07T08:54:54;19.60;;;9.77;;
3801;SDS011;1916;51.798;12.246;2022-12-07T08:56:56;18.97;;;9.70;;
3801;SDS011;1916;51.798;12.246;2022-12-07T08:59:00;22.37;;;11.03;;
3801;SDS011;1916;51.798;12.246;2022-12-07T09:01:03;17.70;;;9.77;;
3801;SDS011;1916;51.798;12.246;2022-12-07T09:03:05;12.80;;;8.80;;
3801;SDS011;1916;51.798;12.246;2022-12-07T09:05:07;11.40;;;8.30;;
3801;SDS011;1916;51.798;12.246;2022-12-07T09:07:16;16.03;;;8.90;;
3801;SDS011;1916;51.798;12.246;2022-12-07T09:09:19;13.87;;;7.60;;
3801;SDS011;1916;51.798;12.246;2022-12-07T09:11:21;11.37;;;7.57;;
3801;SDS011;1916;51.798;12.246;2022-12-07T09:13:29;12.83;;;7.57;;
3801;SDS011;1916;51.798;12.246;2022-12-07T09:15:31;14.90;;;8.40;;
3801;SDS011;1916;51.798;12.246;2022-12-07T09:17:33;10.67;;;6.70;;
3801;SDS011;1916;51.798;12.246;2022-12-07T09:19:35;8.60;;;5.90;;
3801;SDS011;1916;51.798;12.246;2022-12-07T09:21:38;9.13;;;7.20;;
3801;SDS011;1916;51.798;12.246;2022-12-07T09:23:41;12.63;;;6.87;;
3801;SDS011;1916;51.798;12.246;2022-12-07T09:25:44;10.67;;;5.70;;
3801;SDS011;1916;51.798;12.246;2022-12-07T09:27:46;6.53;;;5.93;;
3801;SDS011;1916;51.798;12.246;2022-12-07T09:29:48;7.90;;;4.53;;
3801;SDS011;1916;51.798;12.246;2022-12-07T09:31:50;5.90;;;4.00;;
3801;SDS011;1916;51.798;12.246;2022-12-07T09:33:55;3.73;;;3.27;;
3801;SDS011;1916;51.798;12.246;2022-12-07T09:35:58;4.63;;;2.70;;
3801;SDS011;1916;51.798;12.246;2022-12-07T09:38:00;4.47;;;2.80;;
3801;SDS011;1916;51.798;12.246;2022-12-07T09:40:03;3.20;;;2.87;;
3801;SDS011;1916;51.798;12.246;2022-12-07T09:42:06;3.70;;;3.33;;
3801;SDS011;1916;51.798;12.246;2022-12-07T09:44:16;3.00;;;2.70;;
3801;SDS011;1916;51.798;12.246;2022-12-07T09:46:22;5.00;;;3.13;;
3801;SDS011;1916;51.798;12.246;2022-12-07T09:48:28;7.67;;;3.20;;
3801;SDS011;1916;51.798;12.246;2022-12-07T09:50:32;3.00;;;2.80;;
3801;SDS011;1916;51.798;12.246;2022-12-07T09:52:34;7.10;;;3.47;;
3801;SDS011;1916;51.798;12.246;2022-12-07T09:54:41;4.00;;;3.60;;
3801;SDS011;1916;51.798;12.246;2022-12-07T09:56:46;6.63;;;3.87;;
3801;SDS011;1916;51.798;12.246;2022-12-07T09:58:48;4.70;;;3.77;;
3801;SDS011;1916;51.798;12.246;2022-12-07T10:00:52;6.30;;;5.50;;
3801;SDS011;1916;51.798;12.246;2022-12-07T10:02:57;8.70;;;4.93;;
3801;SDS011;1916;51.798;12.246;2022-12-07T10:05:04;9.10;;;4.93;;
3801;SDS011;1916;51.798;12.246;2022-12-07T10:07:08;6.87;;;4.83;;
3801;SDS011;1916;51.798;12.246;2022-12-07T10:09:11;5.53;;;4.67;;
3801;SDS011;1916;51.798;12.246;2022-12-07T10:11:14;8.33;;;5.87;;
3801;SDS011;1916;51.798;12.246;2022-12-07T10:13:34;8.90;;;5.80;;
3801;SDS011;1916;51.798;12.246;2022-12-07T10:17:49;9.50;;;6.70;;
3801;SDS011;1916;51.798;12.246;2022-12-07T10:19:52;11.43;;;7.20;;
3801;SDS011;1916;51.798;12.246;2022-12-07T10:22:17;11.70;;;7.17;;
3801;SDS011;1916;51.798;12.246;2022-12-07T10:24:19;9.40;;;7.20;;
3801;SDS011;1916;51.798;12.246;2022-12-07T10:26:28;10.83;;;7.63;;
3801;SDS011;1916;51.798;12.246;2022-12-07T10:28:35;9.57;;;6.73;;
3801;SDS011;1916;51.798;12.246;2022-12-07T10:30:50;8.70;;;6.93;;
3801;SDS011;1916;51.798;12.246;2022-12-07T10:32:58;10.77;;;8.20;;
3801;SDS011;1916;51.798;12.246;2022-12-07T10:35:23;12.00;;;8.63;;
3801;SDS011;1916;51.798;12.246;2022-12-07T10:37:27;10.53;;;7.53;;
3801;SDS011;1916;51.798;12.246;2022-12-07T10:39:29;16.13;;;9.87;;
3801;SDS011;1916;51.798;12.246;2022-12-07T10:41:59;17.80;;;10.40;;
3801;SDS011;1916;51.798;12.246;2022-12-07T10:44:02;18.40;;;9.47;;
3801;SDS011;1916;51.798;12.246;2022-12-07T10:53:26;14.23;;;10.00;;
3801;SDS011;1916;51.798;12.246;2022-12-07T10:55:39;16.27;;;10.20;;
3801;SDS011;1916;51.798;12.246;2022-12-07T10:57:47;15.90;;;11.30;;
3801;SDS011;1916;51.798;12.246;2022-12-07T11:04:43;15.30;;;10.37;;
3801;SDS011;1916;51.798;12.246;2022-12-07T11:12:33;13.90;;;9.43;;
3801;SDS011;1916;51.798;12.246;2022-12-07T11:14:50;15.40;;;9.80;;
3801;SDS011;1916;51.798;12.246;2022-12-07T11:17:18;23.87;;;9.80;;
3801;SDS011;1916;51.798;12.246;2022-12-07T11:22:06;12.90;;;9.27;;
3801;SDS011;1916;51.798;12.246;2022-12-07T11:24:16;12.30;;;8.47;;
3801;SDS011;1916;51.798;12.246;2022-12-07T11:31:31;13.60;;;7.77;;
3801;SDS011;1916;51.798;12.246;2022-12-07T11:36:35;13.63;;;7.77;;
3801;SDS011;1916;51.798;12.246;2022-12-07T11:38:46;17.47;;;8.00;;
3801;SDS011;1916;51.798;12.246;2022-12-07T11:40:53;12.40;;;7.27;;
3801;SDS011;1916;51.798;12.246;2022-12-07T11:42:59;10.90;;;6.60;;
3801;SDS011;1916;51.798;12.246;2022-12-07T11:49:41;10.37;;;7.30;;
3801;SDS011;1916;51.798;12.246;2022-12-07T11:51:45;11.90;;;7.37;;
3801;SDS011;1916;51.798;12.246;2022-12-07T11:53:58;14.17;;;8.00;;
3801;SDS011;1916;51.798;12.246;2022-12-07T11:56:29;11.80;;;7.60;;
3801;SDS011;1916;51.798;12.246;2022-12-07T11:58:35;10.83;;;7.80;;
3801;SDS011;1916;51.798;12.246;2022-12-07T12:00:39;14.57;;;8.63;;
3801;SDS011;1916;51.798;12.246;2022-12-07T12:04:58;11.03;;;8.10;;
3801;SDS011;1916;51.798;12.246;2022-12-07T12:07:05;12.43;;;8.33;;
3801;SDS011;1916;51.798;12.246;2022-12-07T12:09:33;13.33;;;7.60;;
3801;SDS011;1916;51.798;12.246;2022-12-07T12:13:56;12.70;;;8.50;;
3801;SDS011;1916;51.798;12.246;2022-12-07T12:19:55;12.40;;;9.40;;
3801;SDS011;1916;51.798;12.246;2022-12-07T12:21:36;12.07;;;8.40;;
3801;SDS011;1916;51.798;12.246;2022-12-07T12:23:40;13.20;;;9.90;;
3801;SDS011;1916;51.798;12.246;2022-12-07T12:25:45;12.00;;;8.70;;
3801;SDS011;1916;51.798;12.246;2022-12-07T12:27:48;12.73;;;8.40;;
3801;SDS011;1916;51.798;12.246;2022-12-07T12:29:54;11.60;;;7.83;;
3801;SDS011;1916;51.798;12.246;2022-12-07T12:32:32;18.37;;;6.90;;
3801;SDS011;1916;51.798;12.246;2022-12-07T12:36:51;9.20;;;5.93;;
3801;SDS011;1916;51.798;12.246;2022-12-07T12:41:08;8.43;;;5.60;;
3801;SDS011;1916;51.798;12.246;2022-12-07T12:43:44;7.57;;;5.50;;
3801;SDS011;1916;51.798;12.246;2022-12-07T12:45:49;11.23;;;6.10;;
3801;SDS011;1916;51.798;12.246;2022-12-07T12:47:52;5.90;;;5.30;;
3801;SDS011;1916;51.798;12.246;2022-12-07T12:50:17;8.17;;;4.60;;
3801;SDS011;1916;51.798;12.246;2022-12-07T12:54:58;6.57;;;4.90;;
3801;SDS011;1916;51.798;12.246;2022-12-07T12:57:09;7.97;;;5.00;;
3801;SDS011;1916;51.798;12.246;2022-12-07T13:01:41;8.93;;;5.20;;
3801;SDS011;1916;51.798;12.246;2022-12-07T13:03:53;10.47;;;5.10;;
3801;SDS011;1916;51.798;12.246;2022-12-07T13:08:28;8.17;;;5.30;;
3801;SDS011;1916;51.798;12.246;2022-12-07T13:12:37;7.57;;;4.90;;
3801;SDS011;1916;51.798;12.246;2022-12-07T13:14:54;7.87;;;6.43;;
3801;SDS011;1916;51.798;12.246;2022-12-07T13:16:58;7.50;;;6.03;;
3801;SDS011;1916;51.798;12.246;2022-12-07T13:19:00;6.03;;;4.77;;
3801;SDS011;1916;51.798;12.246;2022-12-07T13:23:10;7.07;;;6.07;;
3801;SDS011;1916;51.798;12.246;2022-12-07T13:25:29;7.80;;;5.37;;
3801;SDS011;1916;51.798;12.246;2022-12-07T13:27:37;7.00;;;5.90;;
3801;SDS011;1916;51.798;12.246;2022-12-07T13:29:42;11.73;;;5.87;;
3801;SDS011;1916;51.798;12.246;2022-12-07T13:31:52;8.43;;;6.10;;
3801;SDS011;1916;51.798;12.246;2022-12-07T13:33:55;11.97;;;6.10;;
3801;SDS011;1916;51.798;12.246;2022-12-07T13:35:57;9.43;;;6.00;;
3801;SDS011;1916;51.798;12.246;2022-12-07T13:38:02;6.40;;;5.10;;
3801;SDS011;1916;51.798;12.246;2022-12-07T13:40:20;14.33;;;6.17;;
3801;SDS011;1916;51.798;12.246;2022-12-07T13:42:30;6.63;;;5.67;;
3801;SDS011;1916;51.798;12.246;2022-12-07T13:44:34;7.83;;;5.57;;
3801;SDS011;1916;51.798;12.246;2022-12-07T13:48:54;8.17;;;5.10;;
3801;SDS011;1916;51.798;12.246;2022-12-07T13:50:57;6.10;;;4.73;;
3801;SDS011;1916;51.798;12.246;2022-12-07T13:53:00;5.70;;;4.43;;
3801;SDS011;1916;51.798;12.246;2022-12-07T13:57:08;6.43;;;4.10;;
3801;SDS011;1916;51.798;12.246;2022-12-07T13:59:14;4.40;;;3.90;;
3801;SDS011;1916;51.798;12.246;2022-12-07T14:01:19;6.13;;;4.00;;
3801;SDS011;1916;51.798;12.246;2022-12-07T14:03:34;5.23;;;3.50;;
3801;SDS011;1916;51.798;12.246;2022-12-07T14:05:38;11.60;;;3.20;;
3801;SDS011;1916;51.798;12.246;2022-12-07T14:07:49;10.03;;;3.23;;
3801;SDS011;1916;51.798;12.246;2022-12-07T14:10:00;5.83;;;3.50;;